Time;durP1;ratioP1;P1;durP2;ratioP2;P2;SDS_P1;SDS_P2;PMS_P1;PMS_P2;Temp;Humidity;BMP_temperature;BMP_pressure;BME280_temperature;BME280_humidity;BME280_pressure;Samples;Min_cycle;Max_cycle;Signal;HPM_P1;HPM_P2
2022/03/24 00:01:49;;;;;;;38.47;23.60;;;;;;;4.69;89.74;67300.00;5009268;28;20088;-83
2022/03/24 00:04:14;;;;;;;35.60;23.50;;;;;;;4.66;91.50;67296.03;4971800;28;20523;-84
2022/03/24 00:06:40;;;;;;;37.03;23.83;;;;;;;4.63;90.70;67293.22;4992409;28;20455;-83
2022/03/24 00:09:05;;;;;;;39.45;24.25;;;;;;;4.67;91.05;67295.09;4985096;28;20423;-84
2022/03/24 00:11:31;;;;;;;40.55;24.83;;;;;;;4.64;91.38;67296.44;4987911;28;20060;-84
2022/03/24 00:13:57;;;;;;;33.75;23.35;;;;;;;4.64;89.85;67291.72;4982853;28;20105;-84
2022/03/24 00:16:23;;;;;;;38.67;24.25;;;;;;;4.75;90.55;67312.06;4983458;28;20629;-83
2022/03/24 00:18:49;;;;;;;42.45;25.50;;;;;;;4.66;90.45;67293.97;4979973;28;20034;-82
2022/03/24 00:21:16;;;;;;;38.75;24.33;;;;;;;;;;4966075;28;20053;-83
2022/03/24 00:23:43;;;;;;;37.47;24.60;;;;;;;4.72;89.89;67302.84;4964931;28;20189;-84
2022/03/24 00:26:08;;;;;;;38.22;24.02;;;;;;;4.62;89.85;67291.53;4980574;28;20562;-84
2022/03/24 00:28:33;;;;;;;36.85;23.50;;;;;;;4.55;90.21;67281.00;4983512;28;20054;-84
2022/03/24 00:30:59;;;;;;;38.95;25.35;;;;;;;4.63;89.83;67295.28;4986061;28;20402;-84
2022/03/24 00:33:25;;;;;;;36.78;23.15;;;;;;;4.69;90.36;67304.69;4979058;28;20062;-84
2022/03/24 00:35:52;;;;;;;39.53;24.65;;;;;;;4.60;89.50;67292.47;4961262;28;20031;-82
2022/03/24 00:38:17;;;;;;;37.45;23.25;;;;;;;4.53;90.45;67285.13;4979666;28;20047;-82
2022/03/24 00:40:43;;;;;;;41.78;25.55;;;;;;;4.46;90.82;67274.03;4960473;28;20042;-83
2022/03/24 00:43:09;;;;;;;37.65;23.80;;;;;;;4.44;90.21;67271.78;4981335;28;20089;-82
2022/03/24 00:45:35;;;;;;;37.65;24.35;;;;;;;4.51;91.89;67280.22;4959036;28;20146;-84
2022/03/24 00:48:00;;;;;;;39.63;25.08;;;;;;;4.35;91.71;67269.53;4979664;28;20385;-85
2022/03/24 00:50:26;;;;;;;37.55;25.58;;;;;;;4.30;92.54;67253.91;4967691;28;20097;-83
2022/03/24 00:52:51;;;;;;;37.03;22.17;;;;;;;4.16;91.55;67243.38;4980412;28;20441;-86
2022/03/24 00:55:19;;;;;;;38.13;24.50;;;;;;;4.28;92.77;67254.28;4980210;28;20045;-85
2022/03/24 00:57:49;;;;;;;40.80;24.35;;;;;;;4.28;93.30;67251.63;4984670;28;20055;-87
2022/03/24 01:00:15;;;;;;;42.35;25.00;;;;;;;4.20;92.17;67245.81;4987561;28;20081;-84
2022/03/24 01:02:45;;;;;;;39.80;22.88;;;;;;;4.24;92.50;67252.97;4968329;28;20038;-85
2022/03/24 01:05:13;;;;;;;39.47;24.17;;;;;;;4.22;92.30;67245.44;4980335;28;20043;-85
2022/03/24 01:07:39;;;;;;;40.03;25.73;;;;;;;4.21;93.21;67249.56;4978451;28;20046;-85
2022/03/24 01:10:05;;;;;;;37.88;24.40;;;;;;;4.25;93.48;67250.88;4979000;28;20126;-84
2022/03/24 01:12:31;;;;;;;41.45;27.05;;;;;;;4.27;94.05;67253.16;4963242;28;20106;-84
2022/03/24 01:14:56;;;;;;;39.63;26.38;;;;;;;4.07;94.24;67229.06;4967017;28;20042;-85
2022/03/24 01:17:25;;;;;;;42.33;27.98;;;;;;;3.98;94.49;67220.97;4984995;28;20390;-83
2022/03/24 01:19:51;;;;;;;43.38;26.02;;;;;;;3.86;94.54;67210.66;4964775;28;20496;-84
2022/03/24 01:22:16;;;;;;;40.97;25.17;;;;;;;3.86;94.85;67207.44;4972711;28;20066;-83
2022/03/24 01:24:41;;;;;;;40.55;25.98;;;;;;;3.88;95.13;67212.31;4982922;28;20133;-86
2022/03/24 01:27:07;;;;;;;43.72;25.88;;;;;;;3.86;95.53;67208.00;4985383;28;20112;-83
2022/03/24 01:29:34;;;;;;;41.53;27.02;;;;;;;3.78;96.29;67202.16;4971467;28;20098;-85
2022/03/24 01:31:59;;;;;;;45.15;27.52;;;;;;;3.72;95.92;67195.41;4972709;28;20047;-86
2022/03/24 01:34:25;;;;;;;41.40;25.80;;;;;;;3.63;96.20;67185.25;4987532;28;20118;-84
2022/03/24 01:36:51;;;;;;;43.80;26.83;;;;;;;3.67;96.44;67187.13;4984747;28;20034;-86
2022/03/24 01:39:16;;;;;;;48.65;26.65;;;;;;;3.56;96.58;67177.34;4970655;28;20114;-86
2022/03/24 01:41:44;;;;;;;44.03;26.85;;;;;;;3.47;97.00;67165.13;4990669;28;20128;-85
2022/03/24 01:44:16;;;;;;;46.38;28.60;;;;;;;3.48;97.09;67171.53;4986630;28;20047;-86
2022/03/24 01:46:56;;;;;;;42.58;27.85;;;;;;;3.53;97.78;67177.16;4985829;28;20046;-83
2022/03/24 01:49:22;;;;;;;48.90;29.00;;;;;;;3.52;97.47;67172.84;4982544;28;20075;-85
2022/03/24 01:51:47;;;;;;;42.95;26.60;;;;;;;3.50;95.93;67173.78;4973810;28;20035;-86
2022/03/24 01:54:12;;;;;;;45.63;28.10;;;;;;;3.56;97.18;67172.66;4981865;28;20041;-83
2022/03/24 01:56:40;;;;;;;42.42;26.40;;;;;;;3.44;96.99;67167.00;4981258;28;20042;-84
2022/03/24 01:59:07;;;;;;;39.88;26.48;;;;;;;3.44;97.44;67158.56;4977746;28;20081;-87
2022/03/24 02:01:37;;;;;;;43.20;25.88;;;;;;;3.50;97.62;67170.59;4964948;28;20049;-86
2022/03/24 02:04:07;;;;;;;44.13;26.63;;;;;;;3.47;98.10;67167.19;4962261;28;20488;-85
2022/03/24 02:06:33;;;;;;;46.83;25.73;;;;;;;3.34;97.40;67153.66;4959268;28;20035;-84
2022/03/24 02:08:59;;;;;;;44.08;26.83;;;;;;;3.38;97.88;67157.63;4977118;28;20096;-84
2022/03/24 02:11:28;;;;;;;42.35;26.00;;;;;;;3.27;97.83;67143.13;4963455;28;20047;-86
2022/03/24 02:13:57;;;;;;;47.28;27.92;;;;;;;3.13;97.92;67129.97;4981409;28;20074;-84
2022/03/24 02:16:27;;;;;;;45.33;28.65;;;;;;;3.21;99.75;67136.38;4960476;28;20054;-83
2022/03/24 02:18:54;;;;;;;44.95;28.33;;;;;;;3.11;99.10;67127.75;4974116;28;20058;-85
2022/03/24 02:21:19;;;;;;;44.22;27.88;;;;;;;3.10;99.77;67123.97;4979703;28;20054;-86
2022/03/24 02:23:44;;;;;;;45.88;28.75;;;;;;;3.05;99.89;67126.22;4962747;28;20053;-87
2022/03/24 02:26:10;;;;;;;41.00;26.58;;;;;;;2.97;100.00;67117.78;4958283;28;20050;-83
2022/03/24 02:28:38;;;;;;;45.30;28.63;;;;;;;2.98;100.00;67115.69;4986484;28;20034;-83
2022/03/24 02:31:04;;;;;;;47.28;28.52;;;;;;;2.92;100.00;67112.69;4964007;28;20042;-84
2022/03/24 02:33:30;;;;;;;46.85;27.90;;;;;;;2.91;100.00;67108.38;4978834;28;20043;-86
2022/03/24 02:35:56;;;;;;;44.15;27.60;;;;;;;2.82;100.00;67098.22;4957406;28;20130;-84
2022/03/24 02:38:22;;;;;;;44.35;27.52;;;;;;;2.85;100.00;67098.97;4980902;28;20055;-85
2022/03/24 02:40:51;;;;;;;43.33;27.70;;;;;;;2.80;100.00;67093.91;4981223;28;20133;-83
2022/03/24 02:43:18;;;;;;;42.80;27.70;;;;;;;2.73;100.00;67086.00;4983498;28;20046;-84
2022/03/24 02:45:44;;;;;;;42.72;27.48;;;;;;;2.74;100.00;67087.16;4982790;28;20057;-83
2022/03/24 02:48:10;;;;;;;43.05;27.23;;;;;;;2.71;100.00;67081.13;4981143;28;20501;-84
2022/03/24 02:50:36;;;;;;;42.08;25.05;;;;;;;2.62;100.00;67074.19;4978824;28;20736;-85
2022/03/24 02:53:01;;;;;;;42.58;27.02;;;;;;;2.62;100.00;67074.19;4988703;28;20042;-85
2022/03/24 02:55:27;;;;;;;41.50;26.92;;;;;;;2.53;100.00;67063.47;4996353;28;20047;-86
2022/03/24 02:57:52;;;;;;;46.45;26.77;;;;;;;2.53;100.00;67063.47;4980575;28;20074;-82
2022/03/24 03:00:17;;;;;;;41.42;28.00;;;;;;;2.52;100.00;67062.91;4964571;28;20050;-81
2022/03/24 03:02:42;;;;;;;40.22;26.00;;;;;;;2.52;100.00;67062.34;4980936;28;20113;-84
2022/03/24 03:05:08;;;;;;;44.50;28.67;;;;;;;2.51;100.00;67061.78;4978162;28;20046;-85
2022/03/24 03:07:33;;;;;;;43.33;30.08;;;;;;;2.54;100.00;67065.16;4979425;28;20047;-83
2022/03/24 03:09:59;;;;;;;46.75;29.10;;;;;;;2.46;100.00;67053.53;4959323;28;20046;-85
2022/03/24 03:12:27;;;;;;;45.63;29.02;;;;;;;2.52;100.00;67062.91;4983645;28;20504;-86
2022/03/24 03:14:53;;;;;;;47.40;29.67;;;;;;;2.58;100.00;67071.72;4970635;28;20101;-84
2022/03/24 03:17:18;;;;;;;44.60;28.02;;;;;;;2.46;100.00;67056.16;4959437;28;20281;-85
2022/03/24 03:19:45;;;;;;;46.35;28.60;;;;;;;2.48;100.00;67058.97;4964259;28;20042;-84
2022/03/24 03:22:11;;;;;;;46.35;30.65;;;;;;;2.53;100.00;67063.47;4980739;28;20039;-83
2022/03/24 03:24:39;;;;;;;46.58;31.48;;;;;;;2.57;100.00;67068.53;4985794;28;20504;-84
2022/03/24 03:27:05;;;;;;;50.75;30.52;;;;;;;2.53;100.00;67061.41;4983702;28;20046;-84
2022/03/24 03:29:30;;;;;;;46.33;27.30;;;;;;;2.36;99.94;67042.25;4982001;28;20138;-83
2022/03/24 03:31:56;;;;;;;50.33;29.63;;;;;;;2.51;100.00;67061.22;4980894;28;20117;-85
2022/03/24 03:34:25;;;;;;;48.42;30.55;;;;;;;2.49;99.88;67060.09;4985116;28;20046;-83
2022/03/24 03:36:53;;;;;;;44.15;27.92;;;;;;;2.52;100.00;67062.34;4963224;28;20043;-86
2022/03/24 03:39:19;;;;;;;46.92;28.13;;;;;;;2.49;100.00;67060.09;4981359;28;20065;-84
2022/03/24 03:41:46;;;;;;;49.78;30.52;;;;;;;2.45;100.00;67052.97;4983429;28;20644;-85
2022/03/24 03:44:11;;;;;;;47.10;29.23;;;;;;;2.49;100.00;67064.78;4961675;28;20125;-84
2022/03/24 03:46:37;;;;;;;44.30;28.13;;;;;;;2.50;100.00;67055.38;4960199;28;20475;-85
2022/03/24 03:49:04;;;;;;;48.65;29.25;;;;;;;2.39;99.76;67048.28;4979773;28;20464;-85
2022/03/24 03:51:31;;;;;;;45.65;29.85;;;;;;;2.36;100.00;67042.25;4979940;28;20603;-84
2022/03/24 03:53:57;;;;;;;49.90;31.58;;;;;;;2.38;100.00;67052.38;4984547;28;20046;-82
2022/03/24 03:56:23;;;;;;;48.38;31.52;;;;;;;2.33;100.00;67042.06;4964855;28;20050;-86
2022/03/24 03:58:48;;;;;;;54.05;30.90;;;;;;;2.31;100.00;67039.81;4959321;28;20045;-86
2022/03/24 04:01:14;;;;;;;49.42;30.25;;;;;;;2.32;100.00;67037.75;4967644;28;20053;-82
2022/03/24 04:03:39;;;;;;;46.35;30.27;;;;;;;2.30;100.00;67040.72;4981521;28;20049;-84
2022/03/24 04:06:10;;;;;;;49.63;31.55;;;;;;;2.23;100.00;67025.53;4988334;28;20043;-85
2022/03/24 04:08:42;;;;;;;47.38;29.52;;;;;;;2.24;100.00;67031.91;4968071;28;20035;-83
2022/03/24 04:11:09;;;;;;;45.30;30.08;;;;;;;2.22;100.00;67032.84;4978723;28;20093;-83
2022/03/24 04:13:36;;;;;;;49.92;30.25;;;;;;;2.16;100.00;67028.16;4981083;28;20050;-85
2022/03/24 04:16:02;;;;;;;48.72;30.23;;;;;;;2.24;100.00;67034.53;4973593;28;20093;-86
2022/03/24 04:18:28;;;;;;;48.47;30.05;;;;;;;2.18;100.00;67022.53;4981516;28;20058;-82
2022/03/24 04:20:53;;;;;;;52.58;32.20;;;;;;;2.19;100.00;67023.66;4960705;28;20066;-84
2022/03/24 04:23:19;;;;;;;51.08;31.45;;;;;;;2.23;100.00;67030.78;4975959;28;20046;-84
2022/03/24 04:25:45;;;;;;;49.08;29.83;;;;;;;2.12;100.00;67023.66;4979133;28;20053;-82
2022/03/24 04:28:11;;;;;;;49.45;30.05;;;;;;;2.20;100.00;67027.97;4963790;28;20042;-83
2022/03/24 04:30:37;;;;;;;47.90;30.98;;;;;;;2.12;100.00;67018.41;4977660;28;20043;-83
2022/03/24 04:33:02;;;;;;;47.42;31.15;;;;;;;2.12;100.00;67018.94;4958799;28;20046;-87
2022/03/24 04:35:28;;;;;;;50.97;31.50;;;;;;;2.16;100.00;67023.47;4982227;28;20569;-83
2022/03/24 04:37:54;;;;;;;48.38;27.27;;;;;;;1.99;100.00;67004.31;4976858;28;20525;-86
2022/03/24 04:40:20;;;;;;;52.75;31.50;;;;;;;2.11;100.00;67017.84;4979845;28;20073;-85
2022/03/24 04:42:50;;;;;;;52.10;31.45;;;;;;;2.16;100.00;67018.22;4976644;28;20137;-83
2022/03/24 04:45:17;;;;;;;47.63;29.20;;;;;;;2.03;100.00;67012.00;4975098;28;20050;-82
2022/03/24 04:47:44;;;;;;;49.47;32.10;;;;;;;2.06;100.00;67011.63;4978248;28;20039;-83
2022/03/24 04:50:11;;;;;;;51.60;32.17;;;;;;;2.04;100.00;67009.94;4978763;28;20073;-84
2022/03/24 04:52:36;;;;;;;51.13;29.38;;;;;;;1.95;99.84;67000.38;4979140;28;20101;-84
2022/03/24 04:55:03;;;;;;;52.47;30.52;;;;;;;1.87;100.00;66988.75;4976217;28;20485;-85
2022/03/24 04:57:29;;;;;;;48.83;29.67;;;;;;;1.95;100.00;67000.38;4972757;28;20452;-84
2022/03/24 04:59:57;;;;;;;47.15;28.75;;;;;;;1.96;100.00;67006.19;4974967;28;20109;-84
2022/03/24 05:02:24;;;;;;;48.65;30.77;;;;;;;2.03;100.00;67009.38;4965452;28;20105;-84
2022/03/24 05:04:50;;;;;;;50.58;31.05;;;;;;;1.97;100.00;67007.88;4989732;28;20122;-85
2022/03/24 05:07:16;;;;;;;53.53;30.20;;;;;;;2.02;100.00;67005.63;4987244;28;20061;-86
2022/03/24 05:09:41;;;;;;;51.22;29.88;;;;;;;1.93;99.97;66997.56;4972208;28;20077;-85
2022/03/24 05:12:07;;;;;;;51.65;32.25;;;;;;;2.11;100.00;67017.28;4961498;28;20038;-86
2022/03/24 05:14:33;;;;;;;46.08;27.00;;;;;;;1.93;98.68;66998.13;4985709;28;20058;-87
2022/03/24 05:16:59;;;;;;;48.00;30.38;;;;;;;2.09;100.00;67012.38;4961694;28;20049;-85
2022/03/24 05:19:25;;;;;;;49.40;28.42;;;;;;;2.11;99.52;67017.84;4974664;28;20069;-85
2022/03/24 05:21:50;;;;;;;47.25;29.48;;;;;;;2.03;99.70;67009.38;4974782;28;20073;-85
2022/03/24 05:24:17;;;;;;;49.53;30.73;;;;;;;2.13;100.00;67019.50;4964001;28;20042;-86
2022/03/24 05:26:42;;;;;;;48.33;31.80;;;;;;;2.15;100.00;67019.16;4978284;28;20195;-85
2022/03/24 05:29:08;;;;;;;51.90;31.70;;;;;;;2.10;100.00;67016.13;4988844;28;20121;-88
2022/03/24 05:31:34;;;;;;;53.88;31.50;;;;;;;2.05;100.00;67013.69;4971769;28;20042;-85
2022/03/24 05:34:00;;;;;;;50.95;30.67;;;;;;;1.91;100.00;66995.88;4978896;28;20050;-83
2022/03/24 05:36:26;;;;;;;50.33;31.45;;;;;;;2.03;100.00;67006.75;4968133;28;20035;-83
2022/03/24 05:38:51;;;;;;;50.83;31.73;;;;;;;1.97;100.00;66999.44;4979486;28;20093;-88
2022/03/24 05:41:18;;;;;;;54.15;33.05;;;;;;;2.07;100.00;67012.75;4978451;28;20065;-87
2022/03/24 05:46:27;;;;;;;50.40;31.85;;;;;;;2.19;99.63;67021.03;5000566;28;20053;-89
2022/03/24 05:48:53;;;;;;;46.00;28.42;;;;;;;2.03;98.28;67006.19;4999846;28;20046;-87
2022/03/24 05:51:18;;;;;;;51.35;32.00;;;;;;;2.16;99.85;67022.91;4991119;28;20038;-87
2022/03/24 05:53:44;;;;;;;51.72;31.65;;;;;;;2.11;99.03;67019.91;4995357;28;20057;-85
2022/03/24 05:56:09;;;;;;;49.28;31.92;;;;;;;2.14;99.45;67020.66;4988206;28;20042;-87
2022/03/24 05:58:34;;;;;;;51.80;32.35;;;;;;;2.13;99.70;67019.50;4971869;28;20051;-87
2022/03/24 06:00:59;;;;;;;51.00;31.08;;;;;;;2.05;99.89;67008.44;4991015;28;20084;-87
2022/03/24 06:03:27;;;;;;;52.20;33.30;;;;;;;2.10;99.90;67016.13;4988014;28;20134;-86
2022/03/24 06:05:53;;;;;;;51.65;32.35;;;;;;;2.10;100.00;67016.72;4977956;28;22144;-86
2022/03/24 06:08:19;;;;;;;53.05;32.42;;;;;;;2.09;99.93;67018.19;4978415;28;20042;-88
2022/03/24 06:10:46;;;;;;;51.08;36.15;;;;;;;2.22;99.93;67030.22;4960266;28;20096;-88
2022/03/24 06:13:11;;;;;;;51.22;32.20;;;;;;;2.26;99.17;67034.72;4965445;28;20042;-87
2022/03/24 06:15:36;;;;;;;52.75;33.67;;;;;;;2.34;98.06;67043.19;4963251;28;20049;-87
2022/03/24 06:18:11;;;;;;;51.38;31.80;;;;;;;2.36;98.63;67042.25;4980697;28;20432;-90
2022/03/24 06:20:36;;;;;;;52.40;31.10;;;;;;;2.32;98.09;67043.56;4976156;28;20034;-87
2022/03/24 06:23:01;;;;;;;47.03;27.08;;;;;;;2.23;96.85;67030.78;4916447;28;20051;-86
2022/03/24 06:25:27;;;;;;;48.83;30.42;;;;;;;2.44;98.08;67051.25;4937550;28;20050;-89
2022/03/24 06:28:04;;;;;;;53.08;30.33;;;;;;;2.42;96.29;67052.22;4927375;29;20050;-83
2022/03/24 06:30:31;;;;;;;48.45;30.88;;;;;;;2.53;97.70;67064.03;4914558;29;20043;-87
2022/03/24 06:32:57;;;;;;;53.42;33.03;;;;;;;2.65;98.17;67074.38;4934411;29;20465;-86
2022/03/24 06:35:23;;;;;;;51.08;32.88;;;;;;;2.76;97.52;67092.00;4923751;29;20678;-87
2022/03/24 06:37:50;;;;;;;50.67;29.42;;;;;;;2.78;95.95;67091.09;4896938;29;20110;-87
2022/03/24 06:40:16;;;;;;;50.08;30.90;;;;;;;2.96;96.26;67110.81;4906530;29;20040;-86
2022/03/24 06:42:42;;;;;;;50.92;29.52;;;;;;;2.99;95.69;67111.56;4888877;29;20217;-85
2022/03/24 06:45:10;;;;;;;50.28;32.47;;;;;;;3.20;96.03;67143.16;4895987;29;20107;-86
2022/03/24 06:47:36;;;;;;;47.67;32.45;;;;;;;3.22;95.83;67142.19;4903137;29;20036;-86
2022/03/24 06:50:01;;;;;;;52.83;31.98;;;;;;;3.27;94.77;67143.13;4911331;29;20051;-87
2022/03/24 06:52:26;;;;;;;56.92;33.05;;;;;;;3.49;94.09;67169.47;4874585;29;20139;-85
2022/03/24 06:54:52;;;;;;;52.88;36.38;;;;;;;3.68;92.68;67185.06;4926859;28;20517;-87
2022/03/24 06:57:17;;;;;;;49.55;33.60;;;;;;;3.83;90.96;67207.81;4939153;28;20047;-87
2022/03/24 06:59:43;;;;;;;49.75;34.95;;;;;;;3.94;90.02;67214.41;4941189;28;20082;-86
2022/03/24 07:02:09;;;;;;;46.25;32.15;;;;;;;4.10;89.45;67231.88;4940456;28;20047;-86
2022/03/24 07:04:35;;;;;;;55.20;33.40;;;;;;;4.18;90.21;67243.56;4942075;28;20043;-87
2022/03/24 07:07:00;;;;;;;48.67;34.78;;;;;;;4.27;92.33;67255.78;4941009;28;20047;-86
2022/03/24 07:09:26;;;;;;;47.95;32.15;;;;;;;4.31;91.56;67260.28;4955157;28;20601;-85
2022/03/24 07:11:51;;;;;;;49.90;34.00;;;;;;;4.38;89.74;67265.00;4983314;28;20038;-87
2022/03/24 07:14:17;;;;;;;49.33;35.17;;;;;;;4.44;87.40;67272.34;4959817;28;20576;-87
2022/03/24 07:16:44;;;;;;;47.10;33.35;;;;;;;4.53;85.70;67281.94;4960628;28;20125;-85
2022/03/24 07:19:09;;;;;;;46.35;31.15;;;;;;;4.61;84.88;67293.03;4961326;28;20045;-87
2022/03/24 07:21:35;;;;;;;45.83;30.58;;;;;;;4.66;83.46;67296.63;4961960;28;20046;-87
2022/03/24 07:24:01;;;;;;;48.00;31.23;;;;;;;4.75;83.38;67309.41;4964024;28;20440;-87
2022/03/24 07:26:29;;;;;;;46.40;30.50;;;;;;;4.84;84.06;67316.38;4978142;28;20058;-86
2022/03/24 07:28:54;;;;;;;47.75;28.15;;;;;;;4.97;82.58;67333.69;4981337;28;20507;-87
2022/03/24 07:31:20;;;;;;;47.85;30.98;;;;;;;5.22;82.21;67360.25;4976344;28;20079;-87
2022/03/24 07:33:49;;;;;;;45.35;28.40;;;;;;;5.31;80.92;67370.41;4961608;28;20408;-86
2022/03/24 07:36:16;;;;;;;45.72;33.38;;;;;;;5.43;80.16;67387.16;4982328;28;20038;-86
2022/03/24 07:38:42;;;;;;;45.55;28.80;;;;;;;5.60;79.73;67403.16;4960212;28;20497;-87
2022/03/24 07:41:09;;;;;;;47.03;29.73;;;;;;;5.66;78.83;67407.31;4984212;28;20042;-87
2022/03/24 07:43:34;;;;;;;43.03;26.98;;;;;;;;;;4986721;28;20133;-86
2022/03/24 07:45:59;;;;;;;46.33;27.20;;;;;;;5.91;76.77;67439.72;4991241;28;20137;-87
2022/03/24 07:48:25;;;;;;;39.60;25.63;;;;;;;6.02;72.82;67448.97;4962185;28;20714;-87
2022/03/24 07:50:53;;;;;;;44.85;26.27;;;;;;;6.15;71.75;67457.81;4971352;28;20038;-87
2022/03/24 07:53:28;;;;;;;44.40;28.65;;;;;;;6.27;72.90;67471.97;4987677;28;20037;-87
2022/03/24 07:55:58;;;;;;;46.97;30.50;;;;;;;6.45;73.40;67491.75;4988851;28;20046;-86
2022/03/24 07:58:25;;;;;;;41.00;27.02;;;;;;;6.61;72.26;67511.34;4971777;28;20038;-86
2022/03/24 08:00:50;;;;;;;44.75;28.23;;;;;;;6.82;70.78;67535.13;4982791;28;20122;-88
2022/03/24 08:03:20;;;;;;;46.95;29.95;;;;;;;6.96;71.00;67553.59;4958580;28;20126;-87
2022/03/24 08:05:46;;;;;;;46.13;29.55;;;;;;;7.09;71.71;67567.75;4970607;28;20053;-86
2022/03/24 08:08:14;;;;;;;42.42;28.73;;;;;;;7.25;71.86;67587.94;4977867;28;20057;-87
2022/03/24 08:10:41;;;;;;;45.42;27.92;;;;;;;7.45;71.12;67602.03;4973265;28;20050;-86
2022/03/24 08:13:08;;;;;;;46.92;30.58;;;;;;;7.47;71.38;67606.97;4963899;28;20070;-88
2022/03/24 08:15:36;;;;;;;46.17;29.40;;;;;;;7.49;71.46;67606.03;4970196;28;20089;-89
2022/03/24 08:18:04;;;;;;;41.30;30.10;;;;;;;7.55;70.67;67615.47;4965324;28;20137;-88
2022/03/24 08:20:29;;;;;;;41.17;27.33;;;;;;;7.68;68.85;67627.50;4975956;28;20035;-87
2022/03/24 08:22:55;;;;;;;42.35;27.42;;;;;;;7.73;68.69;67632.63;4961199;28;20432;-87
2022/03/24 08:25:20;;;;;;;41.20;28.52;;;;;;;7.84;69.53;67645.06;4976201;28;20055;-88
2022/03/24 08:27:46;;;;;;;42.72;28.42;;;;;;;8.06;69.33;67675.28;4979144;28;20065;-88
2022/03/24 08:30:12;;;;;;;39.85;28.27;;;;;;;8.21;68.91;67691.13;4982755;28;20122;-86
2022/03/24 08:32:39;;;;;;;39.45;27.85;;;;;;;8.38;66.39;67707.75;4967823;28;20046;-87
2022/03/24 08:35:04;;;;;;;39.67;25.95;;;;;;;8.42;66.22;67711.72;4982795;28;20356;-87
2022/03/24 08:37:31;;;;;;;40.97;27.83;;;;;;;8.49;65.50;67720.22;4965842;28;20046;-87
2022/03/24 08:39:56;;;;;;;40.90;26.02;;;;;;;;;;4994382;28;21120;-88
2022/03/24 08:42:22;;;;;;;41.85;26.35;;;;;;;8.74;66.84;67747.97;4985867;28;20049;-88
2022/03/24 08:44:47;;;;;;;39.72;27.85;;;;;;;8.92;64.56;67765.16;4992123;28;20509;-88
2022/03/24 08:47:13;;;;;;;48.50;29.80;;;;;;;9.20;64.21;67801.63;4963104;28;20517;-87
2022/03/24 08:49:38;;;;;;;40.22;27.52;;;;;;;9.40;61.50;67818.44;4983830;28;20592;-87
2022/03/24 08:52:04;;;;;;;44.53;28.02;;;;;;;9.61;62.75;67841.09;4982916;28;20050;-89
2022/03/24 08:54:29;;;;;;;40.75;26.58;;;;;;;9.92;63.06;67875.69;4978676;28;20041;-88
2022/03/24 08:56:55;;;;;;;41.92;30.23;;;;;;;10.04;63.09;67891.97;4961604;28;20041;-87
2022/03/24 08:59:20;;;;;;;43.17;28.02;;;;;;;10.20;61.54;67909.00;4985643;28;20070;-88
2022/03/24 09:01:46;;;;;;;40.03;30.05;;;;;;;10.32;60.79;67922.63;4985914;28;20038;-89
2022/03/24 09:04:11;;;;;;;43.85;28.60;;;;;;;10.49;57.52;67939.25;4954016;28;20093;-87
2022/03/24 09:06:38;;;;;;;39.55;25.30;;;;;;;;;;4985325;28;20182;-88
2022/03/24 09:09:05;;;;;;;38.10;27.90;;;;;;;10.73;58.90;67965.94;4980370;28;20130;-87
2022/03/24 09:11:30;;;;;;;40.80;28.25;;;;;;;10.73;57.89;67968.00;4987343;28;20038;-87
2022/03/24 09:13:56;;;;;;;44.47;27.98;;;;;;;10.85;59.36;67973.66;4990519;28;20036;-88
2022/03/24 09:16:21;;;;;;;39.60;29.50;;;;;;;10.98;59.68;67995.81;4980429;28;20053;-88
2022/03/24 09:18:47;;;;;;;38.88;29.42;;;;;;;11.09;58.68;68008.31;4957120;28;20051;-88
2022/03/24 09:21:13;;;;;;;38.13;25.80;;;;;;;;;;4962108;28;20030;-89
2022/03/24 09:23:38;;;;;;;36.85;23.33;;;;;;;11.40;55.17;68040.28;4988194;28;20420;-86
2022/03/24 09:26:04;;;;;;;37.80;28.70;;;;;;;11.42;53.47;68037.22;4980026;28;20443;-87
2022/03/24 09:28:29;;;;;;;37.83;24.00;;;;;;;11.48;51.16;68049.38;4980020;28;20050;-88
2022/03/24 09:30:55;;;;;;;38.63;27.83;;;;;;;11.51;52.66;68052.78;4978596;28;20069;-87
2022/03/24 09:33:21;;;;;;;36.40;29.17;;;;;;;;;;4977243;28;20563;-88
2022/03/24 09:35:47;;;;;;;40.72;29.73;;;;;;;11.67;53.26;68075.13;4965976;28;20038;-88
2022/03/24 09:38:12;;;;;;;35.20;26.58;;;;;;;;;;4979286;28;20083;-86
2022/03/24 09:40:39;;;;;;;38.13;29.10;;;;;;;11.79;53.25;68075.44;4962228;28;20420;-88
2022/03/24 09:43:04;;;;;;;39.10;28.38;;;;;;;;;;4977017;28;20308;-87
2022/03/24 09:45:30;;;;;;;37.83;28.33;;;;;;;12.13;52.50;68123.63;4958324;28;20051;-88
2022/03/24 09:47:56;;;;;;;38.05;27.15;;;;;;;12.14;52.81;68116.75;4978306;28;20609;-86
2022/03/24 09:50:22;;;;;;;37.63;28.38;;;;;;;;;;4978771;28;20104;-88
2022/03/24 09:52:47;;;;;;;37.25;26.23;;;;;;;;;;4972764;28;20077;-85
2022/03/24 09:55:13;;;;;;;36.90;27.13;;;;;;;;;;4976278;28;20674;-87
2022/03/24 09:57:42;;;;;;;38.55;28.67;;;;;;;12.76;51.51;68186.06;4972612;28;20563;-87
2022/03/24 10:00:08;;;;;;;;;;;;;;;12.82;52.80;68198.25;4975874;28;20038;-86
2022/03/24 10:02:33;;;;;;;38.30;29.23;;;;;;;12.74;51.59;68189.13;4982601;28;19929;-86
2022/03/24 10:05:02;;;;;;;37.55;29.88;;;;;;;12.78;50.86;68193.13;4983160;28;20153;-86
2022/03/24 10:07:33;;;;;;;39.05;30.33;;;;;;;12.80;53.29;68190.06;4992567;28;20058;-85
2022/03/24 10:10:01;;;;;;;36.50;28.55;;;;;;;;;;4958864;28;20061;-85
2022/03/24 10:12:30;;;;;;;35.75;28.45;;;;;;;13.14;48.36;68232.91;4995212;28;20073;-89
2022/03/24 10:14:56;;;;;;;38.28;27.65;;;;;;;13.26;47.90;68247.16;4977972;28;20046;-85
2022/03/24 10:17:21;;;;;;;35.70;26.83;;;;;;;13.34;48.72;68250.34;4996185;28;20046;-89
2022/03/24 10:19:56;;;;;;;38.63;27.42;;;;;;;13.61;48.36;68285.84;4977347;28;20073;-86
2022/03/24 10:22:21;;;;;;;36.67;26.50;;;;;;;;;;4974552;28;20046;-89
2022/03/24 10:24:46;;;;;;;36.13;26.20;;;;;;;;;;4973209;28;20065;-87
2022/03/24 10:27:20;;;;;;;35.20;25.27;;;;;;;14.14;44.06;68339.09;4982157;28;20073;-84
2022/03/24 10:29:47;;;;;;;32.45;22.58;;;;;;;14.40;44.97;68373.47;4979057;28;20281;-89
2022/03/24 10:32:16;;;;;;;36.03;25.20;;;;;;;;;;4977122;28;20130;-88
2022/03/24 10:34:42;;;;;;;34.33;26.33;;;;;;;;;;4959444;28;20046;-88
2022/03/24 10:37:13;;;;;;;32.58;23.27;;;;;;;14.83;42.80;68416.50;4958307;28;20038;-85
2022/03/24 10:39:53;;;;;;;31.98;24.60;;;;;;;15.02;43.98;68442.94;4979917;28;20074;-88
2022/03/24 10:42:23;;;;;;;30.75;22.30;;;;;;;14.98;44.19;68438.38;4978119;28;20038;-87
2022/03/24 10:45:07;;;;;;;29.83;22.42;;;;;;;;;;4956748;28;20053;-86
2022/03/24 10:47:56;;;;;;;32.08;26.30;;;;;;;15.23;41.94;68457.69;4979881;28;20069;-88
2022/03/24 10:50:31;;;;;;;33.05;23.88;;;;;;;;;;4971171;28;20105;-85
2022/03/24 10:53:05;;;;;;;29.80;19.90;;;;;;;15.31;39.05;68469.47;4978883;28;20055;-84
2022/03/24 10:55:50;;;;;;;24.77;21.02;;;;;;;;;;4975059;28;20085;-85
2022/03/24 10:58:21;;;;;;;26.77;21.05;;;;;;;;;;4974895;28;20145;-85
2022/03/24 11:00:48;;;;;;;33.15;20.42;;;;;;;15.69;39.92;68517.56;4976148;28;20077;-85
2022/03/24 11:03:16;;;;;;;27.23;19.73;;;;;;;15.85;38.56;68534.66;4957961;28;20050;-85
2022/03/24 11:05:41;;;;;;;27.15;19.73;;;;;;;;;;4972524;28;20141;-85
2022/03/24 11:08:08;;;;;;;28.95;21.98;;;;;;;16.03;39.05;68555.19;4955487;28;20603;-88
2022/03/24 11:10:42;;;;;;;29.45;21.25;;;;;;;;;;4958340;28;20427;-86
2022/03/24 11:13:08;;;;;;;29.58;20.38;;;;;;;16.18;37.78;68572.28;4973946;28;20062;-87
2022/03/24 11:15:39;;;;;;;31.40;19.20;;;;;;;;;;4985298;28;20046;-86
2022/03/24 11:18:04;;;;;;;30.45;22.27;;;;;;;;;;4958716;28;20042;-86
2022/03/24 11:20:38;;;;;;;27.08;21.08;;;;;;;16.40;38.77;68596.81;4964515;28;20080;-85
2022/03/24 11:23:17;;;;;;;27.52;21.90;;;;;;;16.44;39.03;68595.97;4958070;28;20141;-89
2022/03/24 11:25:43;;;;;;;27.83;19.13;;;;;;;16.65;37.04;68624.16;4976675;28;20069;-85
2022/03/24 11:28:13;;;;;;;28.55;21.55;;;;;;;16.69;37.73;68623.91;4959300;28;20039;-85
2022/03/24 11:30:38;;;;;;;28.35;19.92;;;;;;;16.68;38.99;68622.19;4974973;28;20054;-88
2022/03/24 11:33:04;;;;;;;28.58;20.35;;;;;;;;;;4984104;28;20038;-87
2022/03/24 11:35:33;;;;;;;29.48;21.45;;;;;;;16.81;38.25;68631.09;5003139;28;20142;-86